Time;durP1;ratioP1;P1;durP2;ratioP2;P2;SDS_P1;SDS_P2;PMS_P1;PMS_P2;Temp;Humidity;BMP_temperature;BMP_pressure;BME280_temperature;BME280_humidity;BME280_pressure;Samples;Min_cycle;Max_cycle;Signal;HPM_P1;HPM_P2
2023/11/23 00:00:47;;;;;;;27.33;12.90;;;10.40;99.90;;;;;;5111879;28;20603;-57
2023/11/23 00:03:13;;;;;;;33.50;13.38;;;10.30;99.90;;;;;;5093814;28;20115;-57
2023/11/23 00:05:39;;;;;;;29.85;12.40;;;10.30;99.90;;;;;;5112432;28;20038;-57
2023/11/23 00:08:05;;;;;;;26.90;12.75;;;10.30;99.90;;;;;;5115971;28;20040;-57
2023/11/23 00:10:31;;;;;;;28.83;11.65;;;10.40;99.90;;;;;;5081104;28;20039;-57
2023/11/23 00:12:56;;;;;;;34.85;12.43;;;10.30;99.90;;;;;;5097550;28;20493;-57
2023/11/23 00:15:22;;;;;;;31.13;11.70;;;10.40;99.90;;;;;;5115751;28;20113;-56
2023/11/23 00:17:48;;;;;;;27.52;11.63;;;10.30;99.90;;;;;;5116048;28;20069;-59
2023/11/23 00:20:13;;;;;;;24.65;10.70;;;10.40;99.90;;;;;;5115872;28;20032;-59
2023/11/23 00:22:39;;;;;;;24.17;11.75;;;10.30;99.90;;;;;;5109813;28;20036;-58
2023/11/23 00:25:05;;;;;;;32.55;11.90;;;10.40;99.90;;;;;;5107189;28;20119;-58
2023/11/23 00:27:34;;;;;;;30.33;10.65;;;10.40;99.90;;;;;;5115540;28;20045;-57
2023/11/23 00:29:59;;;;;;;24.00;10.50;;;10.40;99.90;;;;;;5115448;28;20436;-58
2023/11/23 00:32:25;;;;;;;23.88;10.48;;;10.50;99.90;;;;;;5115376;28;20088;-57
2023/11/23 00:34:51;;;;;;;24.15;8.93;;;10.60;99.90;;;;;;5115643;28;20031;-59
2023/11/23 00:37:17;;;;;;;23.30;8.40;;;10.60;99.90;;;;;;5104710;28;20032;-58
2023/11/23 00:39:42;;;;;;;23.52;8.90;;;10.60;99.90;;;;;;5101254;28;20385;-57
2023/11/23 00:42:08;;;;;;;17.95;8.57;;;10.60;99.90;;;;;;5115620;28;20040;-57
2023/11/23 00:44:34;;;;;;;21.88;8.30;;;10.80;99.90;;;;;;5108318;27;20049;-57
2023/11/23 00:47:00;;;;;;;19.95;6.97;;;10.80;99.90;;;;;;5135877;27;20042;-58
2023/11/23 00:49:27;;;;;;;16.48;7.20;;;10.70;99.90;;;;;;5117210;27;20077;-58
2023/11/23 00:51:52;;;;;;;18.17;7.63;;;10.70;99.90;;;;;;5135537;27;20126;-59
2023/11/23 00:54:20;;;;;;;18.70;6.05;;;10.80;99.90;;;;;;5135766;27;20106;-57
2023/11/23 00:56:46;;;;;;;20.80;5.60;;;10.80;99.90;;;;;;5135464;27;20039;-56
2023/11/23 00:59:11;;;;;;;24.65;5.97;;;10.90;99.90;;;;;;5135389;27;20519;-57
2023/11/23 01:01:37;;;;;;;20.75;5.40;;;11.00;99.90;;;;;;5135589;27;20039;-57
2023/11/23 01:04:05;;;;;;;23.92;4.95;;;10.90;99.90;;;;;;5117318;27;20027;-58
2023/11/23 01:06:31;;;;;;;17.38;5.22;;;11.00;99.90;;;;;;5117254;27;20042;-59
2023/11/23 01:08:58;;;;;;;22.50;5.20;;;11.10;99.90;;;;;;5094456;27;20035;-57
2023/11/23 01:11:24;;;;;;;21.83;5.03;;;11.10;99.90;;;;;;5114724;28;20129;-57
2023/11/23 01:13:50;;;;;;;19.23;5.35;;;11.10;99.90;;;;;;5114340;28;20097;-56
2023/11/23 01:16:15;;;;;;;14.20;3.85;;;11.10;99.90;;;;;;5114499;28;20035;-57
2023/11/23 01:18:42;;;;;;;18.13;4.68;;;11.10;99.90;;;;;;5098120;28;20036;-57
2023/11/23 01:21:08;;;;;;;17.77;3.90;;;11.30;99.90;;;;;;5114750;28;20037;-57
2023/11/23 01:23:33;;;;;;;19.77;3.65;;;11.30;99.90;;;;;;5101292;28;20036;-57
2023/11/23 01:25:59;;;;;;;22.38;3.63;;;11.40;99.90;;;;;;5113481;28;20044;-56
2023/11/23 01:28:25;;;;;;;15.90;4.10;;;11.40;99.90;;;;;;5114613;28;20039;-58
2023/11/23 01:30:51;;;;;;;26.17;3.75;;;11.40;99.90;;;;;;5114519;28;20032;-58
2023/11/23 01:33:17;;;;;;;19.60;4.15;;;11.30;99.90;;;;;;5114563;28;20050;-58
2023/11/23 01:35:43;;;;;;;15.15;3.65;;;11.30;99.90;;;;;;5095870;28;20204;-57
2023/11/23 01:38:09;;;;;;;14.63;3.88;;;11.40;99.90;;;;;;5114435;28;20036;-57
2023/11/23 01:40:34;;;;;;;20.95;4.07;;;11.30;99.90;;;;;;5114165;28;20040;-58
2023/11/23 01:43:05;;;;;;;22.05;3.40;;;11.40;99.90;;;;;;5114186;28;20093;-58
2023/11/23 01:45:31;;;;;;;17.75;3.80;;;11.40;99.90;;;;;;5114064;28;20549;-57
2023/11/23 01:47:57;;;;;;;22.48;3.50;;;11.40;99.90;;;;;;5113918;28;20134;-58
2023/11/23 01:50:24;;;;;;;11.25;2.92;;;11.50;99.90;;;;;;5114102;28;20048;-57
2023/11/23 01:52:50;;;;;;;14.52;4.13;;;11.40;99.90;;;;;;5113757;28;20105;-58
2023/11/23 01:55:16;;;;;;;19.65;3.63;;;11.50;99.90;;;;;;5113905;28;20427;-56
2023/11/23 01:57:45;;;;;;;23.33;4.30;;;11.60;99.90;;;;;;5075564;28;20040;-57
2023/11/23 02:00:13;;;;;;;25.88;4.75;;;11.50;99.90;;;;;;5114073;28;20046;-56
2023/11/23 02:02:41;;;;;;;16.95;3.53;;;11.50;99.90;;;;;;5095816;28;20045;-57
2023/11/23 02:05:09;;;;;;;26.60;3.58;;;11.50;99.90;;;;;;5113863;28;20082;-57
2023/11/23 02:07:35;;;;;;;17.33;3.33;;;11.50;99.90;;;;;;5095840;28;20047;-56
2023/11/23 02:10:01;;;;;;;20.70;4.00;;;11.50;99.90;;;;;;5113585;28;20826;-58
2023/11/23 02:12:28;;;;;;;18.58;3.92;;;11.60;99.90;;;;;;5113878;28;20043;-56
2023/11/23 02:14:55;;;;;;;22.25;4.20;;;11.60;99.90;;;;;;5113523;28;20067;-57
2023/11/23 02:17:21;;;;;;;17.52;3.75;;;11.60;99.90;;;;;;5113751;28;20096;-59
2023/11/23 02:19:48;;;;;;;14.77;3.47;;;11.60;99.90;;;;;;5113677;28;20035;-58
2023/11/23 02:22:14;;;;;;;20.17;5.20;;;11.70;99.90;;;;;;5079004;28;20446;-58
2023/11/23 02:24:42;;;;;;;16.60;3.28;;;11.70;99.90;;;;;;5101359;28;20039;-58
2023/11/23 02:27:08;;;;;;;20.88;3.92;;;11.70;99.90;;;;;;5113418;28;20048;-57
2023/11/23 02:29:34;;;;;;;14.75;3.42;;;11.70;99.90;;;;;;5099139;28;20036;-57
2023/11/23 02:32:08;;;;;;;17.92;4.10;;;11.70;99.90;;;;;;5095099;28;20093;-57
2023/11/23 02:34:35;;;;;;;17.77;3.03;;;11.60;99.90;;;;;;5112929;28;20050;-56
2023/11/23 02:37:01;;;;;;;18.58;3.58;;;11.70;99.90;;;;;;5110029;28;20043;-56
2023/11/23 02:39:27;;;;;;;22.38;4.18;;;11.70;99.90;;;;;;5112814;28;20084;-56
2023/11/23 02:41:54;;;;;;;21.75;4.25;;;11.70;99.90;;;;;;5113254;28;20036;-57
2023/11/23 02:44:20;;;;;;;20.00;4.25;;;11.70;99.90;;;;;;5094515;28;20101;-57
2023/11/23 02:46:45;;;;;;;17.20;3.45;;;11.60;99.90;;;;;;5112977;28;20044;-57
2023/11/23 02:49:11;;;;;;;19.42;3.72;;;11.70;99.90;;;;;;5112322;28;20067;-57
2023/11/23 02:51:37;;;;;;;18.23;3.13;;;11.60;99.90;;;;;;5107052;28;20394;-57
2023/11/23 02:54:03;;;;;;;20.80;3.67;;;11.60;99.90;;;;;;5104492;28;20043;-57
2023/11/23 02:56:29;;;;;;;21.02;4.20;;;11.60;99.90;;;;;;5094624;28;20042;-58
2023/11/23 02:58:55;;;;;;;21.80;4.13;;;11.60;99.90;;;;;;5112869;28;20397;-57
2023/11/23 03:01:23;;;;;;;19.42;4.30;;;11.50;99.90;;;;;;5112563;28;20036;-57
2023/11/23 03:03:49;;;;;;;28.77;4.75;;;11.50;99.90;;;;;;5094630;28;20036;-56
2023/11/23 03:06:15;;;;;;;19.48;3.38;;;11.50;99.90;;;;;;5112370;28;20507;-57
2023/11/23 03:08:43;;;;;;;20.52;3.67;;;11.40;99.90;;;;;;5112580;28;20093;-57
2023/11/23 03:11:19;;;;;;;20.25;3.50;;;11.40;99.90;;;;;;5112726;28;20048;-58
2023/11/23 03:13:45;;;;;;;20.27;3.20;;;11.50;99.90;;;;;;5094087;28;20111;-56
2023/11/23 03:16:11;;;;;;;20.95;3.97;;;11.40;99.90;;;;;;5112301;28;20035;-57
2023/11/23 03:18:37;;;;;;;22.48;4.05;;;11.40;99.90;;;;;;5112245;28;20039;-56
2023/11/23 03:21:04;;;;;;;16.73;3.83;;;11.40;99.90;;;;;;5112422;28;20036;-58
2023/11/23 03:23:29;;;;;;;17.77;3.92;;;11.40;99.90;;;;;;5098264;28;20047;-57
2023/11/23 03:25:55;;;;;;;28.42;3.70;;;11.30;99.90;;;;;;5110966;28;20047;-57
2023/11/23 03:28:21;;;;;;;20.40;3.90;;;11.30;99.90;;;;;;5120679;27;20461;-56
2023/11/23 03:30:46;;;;;;;20.30;3.92;;;11.40;99.90;;;;;;5114352;28;20035;-57
2023/11/23 03:33:12;;;;;;;17.33;3.17;;;11.30;99.90;;;;;;5129956;27;20074;-59
2023/11/23 03:35:38;;;;;;;28.58;5.07;;;11.30;99.90;;;;;;5113704;27;20032;-57
2023/11/23 03:38:04;;;;;;;22.55;4.22;;;11.30;99.90;;;;;;5114645;28;20039;-60
2023/11/23 03:40:30;;;;;;;22.80;3.47;;;11.30;99.90;;;;;;5132257;27;20072;-58
2023/11/23 03:42:55;;;;;;;18.92;4.00;;;11.30;99.90;;;;;;5114474;27;20035;-58
2023/11/23 03:45:22;;;;;;;24.13;4.53;;;11.30;99.90;;;;;;5132757;27;20047;-58
2023/11/23 03:47:49;;;;;;;22.00;3.75;;;11.20;99.90;;;;;;5118059;28;20051;-57
2023/11/23 03:50:15;;;;;;;19.70;5.07;;;11.20;99.90;;;;;;5132887;28;20054;-58
2023/11/23 03:52:41;;;;;;;21.13;3.75;;;11.20;99.90;;;;;;5132779;28;20039;-58
2023/11/23 03:55:08;;;;;;;21.15;3.45;;;11.20;99.90;;;;;;5108336;28;20034;-57
2023/11/23 03:57:34;;;;;;;21.02;4.18;;;11.20;99.90;;;;;;5132710;28;20374;-56
2023/11/23 04:00:00;;;;;;;31.20;4.10;;;11.20;99.90;;;;;;5113862;28;20123;-57
2023/11/23 04:02:26;;;;;;;21.88;4.03;;;11.20;99.90;;;;;;5132301;28;20373;-56
2023/11/23 04:04:52;;;;;;;14.30;3.30;;;11.20;99.90;;;;;;5117798;28;20055;-56
2023/11/23 04:07:18;;;;;;;16.25;3.60;;;11.30;99.90;;;;;;5132538;28;20039;-57
2023/11/23 04:09:44;;;;;;;21.25;3.65;;;11.20;99.90;;;;;;5126099;28;20049;-57
2023/11/23 04:12:10;;;;;;;24.63;3.88;;;11.20;99.90;;;;;;5132274;28;20118;-43
2023/11/23 04:14:35;;;;;;;21.88;4.22;;;11.20;99.90;;;;;;5114377;28;20058;-45
2023/11/23 04:17:01;;;;;;;21.50;3.72;;;11.20;99.90;;;;;;5132290;28;20031;-48
2023/11/23 04:19:27;;;;;;;15.50;3.55;;;11.20;99.90;;;;;;5132769;28;20110;-44
2023/11/23 04:21:52;;;;;;;21.48;4.32;;;11.10;99.90;;;;;;5114436;28;20041;-44
2023/11/23 04:24:18;;;;;;;17.90;3.65;;;11.20;99.90;;;;;;5132484;28;20534;-46
2023/11/23 04:26:44;;;;;;;14.75;3.95;;;11.20;99.90;;;;;;5132427;28;20042;-44
2023/11/23 04:29:10;;;;;;;25.23;4.47;;;11.20;99.90;;;;;;5124262;28;20035;-45
2023/11/23 04:31:36;;;;;;;19.13;3.33;;;11.30;99.90;;;;;;5111709;28;20118;-47
2023/11/23 04:34:02;;;;;;;22.23;3.60;;;11.20;99.90;;;;;;5111464;28;20092;-46
2023/11/23 04:36:30;;;;;;;19.35;3.90;;;11.20;99.90;;;;;;5122511;28;20042;-45
2023/11/23 04:38:58;;;;;;;24.00;3.90;;;11.10;99.90;;;;;;5132158;28;20039;-44
2023/11/23 04:41:24;;;;;;;24.88;3.70;;;11.10;99.90;;;;;;5114159;28;20071;-53
2023/11/23 04:43:50;;;;;;;18.15;4.07;;;11.20;99.90;;;;;;5132158;28;20122;-47
2023/11/23 04:46:17;;;;;;;26.08;4.80;;;11.10;99.90;;;;;;5132413;28;20035;-45
2023/11/23 04:48:43;;;;;;;23.92;3.83;;;11.00;99.90;;;;;;5132170;28;20059;-44
2023/11/23 04:51:09;;;;;;;17.50;3.45;;;11.10;99.90;;;;;;5132331;27;20043;-48
2023/11/23 04:53:34;;;;;;;23.05;4.03;;;11.10;99.90;;;;;;5135638;27;20755;-45
2023/11/23 04:56:00;;;;;;;20.08;3.63;;;11.10;99.90;;;;;;5135693;27;20528;-44
2023/11/23 04:58:27;;;;;;;20.55;4.38;;;11.10;99.90;;;;;;5117711;27;20036;-46
2023/11/23 05:00:52;;;;;;;18.98;3.83;;;11.10;99.90;;;;;;5135406;27;20072;-46
2023/11/23 05:03:18;;;;;;;20.92;3.65;;;11.10;99.90;;;;;;5135933;27;20039;-47
2023/11/23 05:05:44;;;;;;;19.02;4.53;;;11.00;99.90;;;;;;5135769;27;20118;-46
2023/11/23 05:08:10;;;;;;;21.40;4.28;;;11.00;99.90;;;;;;5135676;27;20474;-46
2023/11/23 05:10:35;;;;;;;22.02;3.97;;;11.00;99.90;;;;;;5135487;27;20039;-44
2023/11/23 05:13:01;;;;;;;19.75;4.53;;;11.00;99.90;;;;;;5130006;27;20042;-46
2023/11/23 05:15:27;;;;;;;14.85;3.40;;;11.10;99.90;;;;;;5113814;27;20031;-46
2023/11/23 05:17:53;;;;;;;23.33;4.38;;;11.00;99.90;;;;;;5135354;27;20041;-45
2023/11/23 05:20:20;;;;;;;23.02;4.28;;;11.00;99.90;;;;;;5135287;27;20034;-46
2023/11/23 05:22:46;;;;;;;22.60;3.65;;;11.10;99.90;;;;;;5135583;27;20082;-44
2023/11/23 05:25:11;;;;;;;23.27;4.40;;;11.10;99.90;;;;;;5135201;27;20496;-43
2023/11/23 05:27:37;;;;;;;15.77;3.25;;;11.10;99.90;;;;;;5135069;27;20042;-46
2023/11/23 05:30:03;;;;;;;22.27;3.63;;;11.00;99.90;;;;;;5135113;27;20070;-52
2023/11/23 05:32:29;;;;;;;18.58;3.90;;;11.00;99.90;;;;;;5135361;27;20042;-47
2023/11/23 05:34:55;;;;;;;26.13;4.55;;;11.00;99.90;;;;;;5135086;27;20031;-45
2023/11/23 05:37:20;;;;;;;17.15;3.60;;;11.00;99.90;;;;;;5135289;27;20066;-45
2023/11/23 05:39:46;;;;;;;20.67;4.93;;;10.90;99.90;;;;;;5135211;27;20836;-43
2023/11/23 05:42:12;;;;;;;19.88;3.58;;;11.00;99.90;;;;;;5123254;27;20035;-44
2023/11/23 05:44:38;;;;;;;21.13;4.78;;;10.90;99.90;;;;;;5130835;27;20062;-43
2023/11/23 05:47:04;;;;;;;16.65;3.95;;;11.00;99.90;;;;;;5130945;27;20519;-43
2023/11/23 05:49:30;;;;;;;23.60;4.32;;;11.00;99.90;;;;;;5116162;27;20073;-44
2023/11/23 05:51:57;;;;;;;19.38;4.43;;;11.00;99.90;;;;;;5133299;27;20051;-44
2023/11/23 05:54:22;;;;;;;25.23;5.30;;;11.00;99.90;;;;;;5134315;27;20046;-43
2023/11/23 05:56:48;;;;;;;15.60;3.03;;;11.10;99.90;;;;;;5116329;27;20067;-49
2023/11/23 05:59:14;;;;;;;29.27;4.72;;;11.00;99.90;;;;;;5134640;27;20438;-45
2023/11/23 06:01:40;;;;;;;21.73;3.97;;;11.10;99.90;;;;;;5116171;27;20039;-45
2023/11/23 06:04:05;;;;;;;20.90;3.70;;;11.00;99.90;;;;;;5134491;27;20035;-46
2023/11/23 06:06:31;;;;;;;26.30;3.88;;;11.10;99.90;;;;;;5134462;27;20421;-43
2023/11/23 06:08:57;;;;;;;24.67;4.10;;;11.00;99.90;;;;;;5134497;27;20035;-46
2023/11/23 06:11:23;;;;;;;24.40;4.00;;;10.90;99.90;;;;;;5119719;27;20039;-45
2023/11/23 06:13:48;;;;;;;20.67;4.15;;;11.00;99.90;;;;;;5134110;27;20080;-47
2023/11/23 06:16:14;;;;;;;19.60;3.60;;;11.00;99.90;;;;;;5115895;27;20054;-46
2023/11/23 06:18:43;;;;;;;25.83;3.78;;;11.00;99.90;;;;;;5134452;27;20042;-45
2023/11/23 06:21:09;;;;;;;18.52;3.60;;;11.00;99.90;;;;;;5133887;27;20035;-46
2023/11/23 06:23:35;;;;;;;24.67;3.13;;;11.00;99.90;;;;;;5128401;27;20975;-57
2023/11/23 06:26:00;;;;;;;26.13;4.15;;;10.90;99.90;;;;;;5118352;27;20047;-57
2023/11/23 06:28:26;;;;;;;18.88;4.30;;;10.90;99.90;;;;;;5125286;27;20143;-58
2023/11/23 06:30:52;;;;;;;21.08;4.07;;;11.00;99.90;;;;;;5114203;27;20027;-59
2023/11/23 06:33:17;;;;;;;22.08;3.80;;;11.00;99.90;;;;;;5108866;27;20038;-57
2023/11/23 06:35:43;;;;;;;18.90;3.78;;;10.90;99.90;;;;;;5132373;27;20047;-59
2023/11/23 06:38:09;;;;;;;26.20;4.43;;;11.00;99.90;;;;;;5132935;27;20473;-58
2023/11/23 06:40:35;;;;;;;24.02;4.70;;;10.80;99.90;;;;;;5132537;27;20077;-57
2023/11/23 06:43:02;;;;;;;21.25;3.70;;;10.90;99.90;;;;;;5114551;27;20158;-57
2023/11/23 06:45:28;;;;;;;23.55;4.10;;;10.90;99.90;;;;;;5133302;27;20050;-57
2023/11/23 06:47:54;;;;;;;21.73;3.72;;;11.00;99.90;;;;;;5132892;27;20047;-61
2023/11/23 06:50:20;;;;;;;21.50;4.70;;;10.90;99.90;;;;;;5133325;27;20043;-58
2023/11/23 06:52:47;;;;;;;23.40;4.95;;;10.90;99.90;;;;;;5133086;27;20134;-57
2023/11/23 06:55:14;;;;;;;18.35;3.50;;;10.90;99.90;;;;;;5133296;27;20393;-57
2023/11/23 06:57:46;;;;;;;23.35;3.78;;;10.90;99.90;;;;;;5132938;27;20477;-58
2023/11/23 07:00:21;;;;;;;19.02;3.20;;;11.00;99.90;;;;;;5133436;27;20042;-57
2023/11/23 07:02:56;;;;;;;21.80;4.82;;;11.00;99.90;;;;;;5114749;27;20046;-57
2023/11/23 07:05:24;;;;;;;15.38;3.30;;;11.10;99.90;;;;;;5133054;27;20110;-58
2023/11/23 07:07:51;;;;;;;22.95;3.92;;;11.10;99.90;;;;;;5132835;27;20050;-57
2023/11/23 07:10:17;;;;;;;20.95;4.32;;;11.20;99.90;;;;;;5132714;27;20043;-58
2023/11/23 07:12:47;;;;;;;16.25;3.58;;;11.20;99.90;;;;;;5114334;27;20046;-57
2023/11/23 07:15:13;;;;;;;21.95;4.13;;;11.30;99.90;;;;;;5132584;27;20046;-58
2023/11/23 07:17:40;;;;;;;23.42;4.00;;;11.20;99.90;;;;;;5114561;27;20057;-57
2023/11/23 07:20:07;;;;;;;24.40;4.90;;;11.30;99.90;;;;;;5132678;27;20035;-56
2023/11/23 07:22:33;;;;;;;17.15;3.70;;;11.30;99.90;;;;;;5114645;27;20118;-57
2023/11/23 07:25:00;;;;;;;15.90;3.40;;;11.40;99.90;;;;;;5132662;27;20425;-56
2023/11/23 07:27:26;;;;;;;19.35;3.72;;;11.40;99.90;;;;;;5132712;27;20070;-57
2023/11/23 07:29:53;;;;;;;16.88;3.80;;;11.50;99.90;;;;;;5125711;27;20035;-57
2023/11/23 07:32:19;;;;;;;14.60;3.58;;;11.60;99.90;;;;;;5119493;27;20036;-57
2023/11/23 07:34:45;;;;;;;16.63;3.00;;;11.50;99.90;;;;;;5110976;28;20415;-58
2023/11/23 07:37:11;;;;;;;19.10;3.35;;;11.60;99.90;;;;;;5094309;28;20044;-59
2023/11/23 07:39:37;;;;;;;15.43;2.90;;;11.70;99.90;;;;;;5132087;27;20035;-57
2023/11/23 07:42:04;;;;;;;16.63;2.75;;;11.70;99.90;;;;;;5132550;27;20110;-57
2023/11/23 07:44:31;;;;;;;19.05;3.55;;;11.60;99.90;;;;;;5114324;28;20039;-56
2023/11/23 07:46:57;;;;;;;11.90;2.75;;;11.70;99.90;;;;;;5132467;27;20425;-58
2023/11/23 07:49:23;;;;;;;15.63;3.28;;;11.60;99.90;;;;;;5132206;28;20122;-56
2023/11/23 07:51:49;;;;;;;19.10;3.38;;;11.70;99.90;;;;;;5113990;28;20439;-56
2023/11/23 07:54:15;;;;;;;22.50;3.28;;;11.70;99.90;;;;;;5132069;28;20075;-57
2023/11/23 07:56:41;;;;;;;21.20;2.83;;;11.80;99.90;;;;;;5132610;28;20068;-57
2023/11/23 07:59:10;;;;;;;17.80;3.33;;;11.70;99.90;;;;;;5113967;28;20350;-57
2023/11/23 08:01:35;;;;;;;;;;;11.80;99.90;;;;;;5132865;28;20039;-57
2023/11/23 08:04:03;;;;;;;14.13;3.67;;;11.80;99.90;;;;;;5132347;28;19915;-58
2023/11/23 08:06:29;;;;;;;20.92;4.00;;;11.90;99.90;;;;;;5132356;28;20096;-57
2023/11/23 08:08:56;;;;;;;18.13;3.80;;;11.90;99.90;;;;;;5114050;28;20035;-56
2023/11/23 08:11:22;;;;;;;16.83;3.33;;;11.90;99.90;;;;;;5132561;28;20034;-56
2023/11/23 08:13:49;;;;;;;16.17;2.92;;;11.90;99.90;;;;;;5132460;28;20393;-58
2023/11/23 08:16:15;;;;;;;19.70;3.20;;;11.90;99.90;;;;;;5132331;28;20050;-59
2023/11/23 08:18:41;;;;;;;15.82;2.90;;;11.90;99.90;;;;;;5132497;28;20352;-57
2023/11/23 08:21:07;;;;;;;17.38;3.00;;;11.90;99.90;;;;;;5132224;28;20035;-58
2023/11/23 08:23:32;;;;;;;15.80;3.03;;;11.90;99.90;;;;;;5132520;28;20393;-57
2023/11/23 08:26:00;;;;;;;13.82;2.70;;;12.00;99.90;;;;;;5131921;27;20499;-57
2023/11/23 08:28:26;;;;;;;15.00;3.40;;;12.00;99.90;;;;;;5117349;27;20084;-57
2023/11/23 08:30:52;;;;;;;18.88;3.25;;;12.00;99.90;;;;;;5136117;27;20039;-58
2023/11/23 08:33:18;;;;;;;18.15;3.30;;;12.10;99.90;;;;;;5117285;27;20038;-58
2023/11/23 08:35:44;;;;;;;19.85;3.38;;;12.10;99.90;;;;;;5117478;27;20553;-56
2023/11/23 08:38:13;;;;;;;15.35;3.25;;;12.10;99.90;;;;;;5136057;27;20043;-56
2023/11/23 08:40:39;;;;;;;11.15;2.92;;;12.20;99.90;;;;;;5133618;27;20125;-56
2023/11/23 08:43:06;;;;;;;15.98;2.92;;;12.20;99.90;;;;;;5111246;27;20051;-56
2023/11/23 08:45:32;;;;;;;15.55;2.63;;;12.20;99.90;;;;;;5135717;27;20443;-56
2023/11/23 08:47:57;;;;;;;14.48;3.08;;;12.20;99.90;;;;;;5121489;27;20051;-57
2023/11/23 08:50:23;;;;;;;16.60;3.13;;;12.30;99.90;;;;;;5114263;28;20070;-57
2023/11/23 08:52:49;;;;;;;11.73;3.00;;;12.40;99.90;;;;;;5114513;28;20071;-57
2023/11/23 08:55:15;;;;;;;15.07;2.78;;;12.40;99.90;;;;;;5114808;28;20035;-57
2023/11/23 08:57:41;;;;;;;15.45;2.95;;;12.40;99.90;;;;;;5116388;27;20044;-58
2023/11/23 09:00:11;;;;;;;12.20;2.97;;;12.50;99.90;;;;;;5115950;27;20031;-57
2023/11/23 09:02:38;;;;;;;10.18;2.13;;;12.50;99.90;;;;;;5133262;27;20385;-55
2023/11/23 09:05:06;;;;;;;12.70;2.63;;;12.40;99.90;;;;;;5134475;27;20392;-57
2023/11/23 09:07:32;;;;;;;11.35;2.70;;;12.50;99.90;;;;;;5130167;27;20046;-57
2023/11/23 09:09:58;;;;;;;10.02;2.22;;;12.60;99.90;;;;;;5134181;27;20050;-58
2023/11/23 09:12:25;;;;;;;12.65;2.85;;;12.50;99.90;;;;;;5133961;27;20043;-58
2023/11/23 09:14:53;;;;;;;14.57;2.85;;;12.60;99.90;;;;;;5133710;27;20062;-57
2023/11/23 09:17:19;;;;;;;11.95;2.22;;;12.60;99.90;;;;;;5132512;27;20043;-57
2023/11/23 09:19:46;;;;;;;14.38;2.92;;;12.60;99.90;;;;;;5130600;27;20055;-57
2023/11/23 09:22:13;;;;;;;15.13;2.80;;;12.60;99.90;;;;;;5128548;27;20447;-57
2023/11/23 09:24:38;;;;;;;15.38;2.95;;;12.70;99.90;;;;;;5133659;27;20039;-57
2023/11/23 09:27:06;;;;;;;12.27;2.95;;;12.70;99.90;;;;;;5133910;27;20096;-58
2023/11/23 09:29:32;;;;;;;13.43;3.17;;;12.80;99.90;;;;;;5129575;27;20050;-56
2023/11/23 09:31:58;;;;;;;17.00;3.47;;;12.70;99.90;;;;;;5096738;27;20047;-56
2023/11/23 09:34:24;;;;;;;15.32;2.53;;;12.90;99.90;;;;;;5127391;27;20039;-56
2023/11/23 09:36:50;;;;;;;13.40;3.45;;;12.90;99.90;;;;;;5125126;27;20115;-59
2023/11/23 09:39:17;;;;;;;20.02;3.97;;;12.90;99.90;;;;;;5130194;27;20507;-57
2023/11/23 09:41:44;;;;;;;12.00;2.63;;;13.00;99.90;;;;;;5134513;27;20107;-57
2023/11/23 09:44:11;;;;;;;9.80;2.55;;;13.00;99.90;;;;;;5117548;27;20043;-57
2023/11/23 09:46:39;;;;;;;14.70;3.38;;;13.00;99.90;;;;;;5120144;27;20080;-56
2023/11/23 09:49:07;;;;;;;20.07;3.40;;;13.10;99.90;;;;;;5114820;27;20517;-58
2023/11/23 09:51:35;;;;;;;13.70;2.85;;;13.20;99.90;;;;;;5100204;27;20082;-58
2023/11/23 09:54:03;;;;;;;15.30;3.17;;;13.10;99.90;;;;;;5106341;27;20071;-57
2023/11/23 09:56:31;;;;;;;15.05;3.63;;;13.20;99.90;;;;;;5117666;27;20150;-57
2023/11/23 09:58:56;;;;;;;13.93;2.47;;;13.20;99.90;;;;;;5118500;27;20537;-57
2023/11/23 10:01:26;;;;;;;10.95;2.60;;;13.20;99.90;;;;;;5114221;28;20039;-56
2023/11/23 10:03:58;;;;;;;14.18;3.00;;;13.20;99.90;;;;;;5106282;28;20043;-58
2023/11/23 10:06:23;;;;;;;12.88;2.80;;;13.30;99.90;;;;;;5112044;28;20047;-57
2023/11/23 10:08:50;;;;;;;13.30;3.42;;;13.30;99.90;;;;;;5112209;27;20035;-57
2023/11/23 10:11:15;;;;;;;17.67;3.03;;;13.30;99.90;;;;;;5124763;27;20050;-58
2023/11/23 10:13:41;;;;;;;15.98;3.42;;;13.40;99.90;;;;;;5116370;27;20031;-57
2023/11/23 10:16:11;;;;;;;15.13;2.50;;;13.40;99.90;;;;;;5097417;28;20159;-58
2023/11/23 10:18:38;;;;;;;13.07;2.60;;;13.40;99.90;;;;;;5115817;27;20035;-58
2023/11/23 10:21:04;;;;;;;12.38;2.42;;;13.50;99.90;;;;;;5117695;27;20032;-58
2023/11/23 10:23:29;;;;;;;15.65;2.75;;;13.50;99.90;;;;;;5112255;28;20047;-59
2023/11/23 10:25:55;;;;;;;11.35;2.55;;;13.50;99.90;;;;;;5114083;27;20074;-57
2023/11/23 10:28:22;;;;;;;12.15;3.00;;;13.50;99.90;;;;;;5115707;27;20450;-58
2023/11/23 10:30:50;;;;;;;17.98;3.05;;;13.50;99.90;;;;;;5122676;27;20028;-58
2023/11/23 10:33:17;;;;;;;15.10;2.67;;;13.40;99.90;;;;;;5092403;28;20377;-58
2023/11/23 10:35:46;;;;;;;8.90;2.50;;;13.50;99.90;;;;;;5127187;27;20043;-56
2023/11/23 10:38:15;;;;;;;14.25;2.90;;;13.60;99.90;;;;;;5110293;27;20043;-59
2023/11/23 10:40:41;;;;;;;;;;;13.50;99.90;;;;;;5110394;27;20066;-60
2023/11/23 10:43:09;;;;;;;13.60;2.58;;;13.60;99.90;;;;;;5119262;27;19963;-57
2023/11/23 10:45:36;;;;;;;14.63;3.37;;;13.60;99.90;;;;;;5133801;27;20077;-60
2023/11/23 10:48:03;;;;;;;14.93;3.40;;;13.60;99.90;;;;;;5125516;27;20112;-58
2023/11/23 10:50:29;;;;;;;11.10;2.60;;;13.60;99.90;;;;;;5126331;27;20054;-57
2023/11/23 10:52:57;;;;;;;11.90;2.42;;;13.60;99.90;;;;;;5130560;27;20039;-57
2023/11/23 10:55:24;;;;;;;12.95;2.50;;;13.60;99.90;;;;;;5133825;27;20545;-57
2023/11/23 10:58:07;;;;;;;16.08;2.67;;;13.60;99.90;;;;;;5133251;27;20095;-58
2023/11/23 11:00:33;;;;;;;15.80;2.60;;;13.50;99.90;;;;;;5097880;27;20066;-58
2023/11/23 11:03:04;;;;;;;12.55;3.00;;;13.50;99.90;;;;;;5132998;27;20031;-57
2023/11/23 11:05:34;;;;;;;18.67;3.10;;;13.40;99.90;;;;;;5133236;27;20039;-57
2023/11/23 11:08:07;;;;;;;13.70;2.60;;;13.40;99.90;;;;;;5133393;27;20035;-57
2023/11/23 11:10:43;;;;;;;13.40;3.13;;;13.50;99.90;;;;;;5133193;27;20548;-57
2023/11/23 11:13:15;;;;;;;14.80;3.53;;;13.40;99.90;;;;;;5132956;27;20380;-57
2023/11/23 11:16:03;;;;;;;15.60;3.10;;;13.40;99.90;;;;;;5114795;27;20103;-57
2023/11/23 11:18:29;;;;;;;14.20;2.92;;;13.40;99.90;;;;;;5115397;27;20038;-58
2023/11/23 11:21:09;;;;;;;17.73;2.85;;;13.40;99.90;;;;;;5133065;27;20061;-57
2023/11/23 11:23:45;;;;;;;16.92;2.65;;;13.30;99.90;;;;;;5105056;27;20043;-56
2023/11/23 11:26:14;;;;;;;18.60;3.00;;;13.30;99.90;;;;;;5132893;27;20039;-58
2023/11/23 11:28:40;;;;;;;13.07;3.20;;;13.40;99.90;;;;;;5115113;27;20039;-56
2023/11/23 11:31:09;;;;;;;17.77;3.10;;;13.50;99.90;;;;;;5133322;27;20039;-57
2023/11/23 11:33:37;;;;;;;17.48;3.03;;;13.50;99.90;;;;;;5132760;27;20061;-57
2023/11/23 11:36:03;;;;;;;16.13;3.15;;;13.50;99.90;;;;;;5132835;27;20043;-57
2023/11/23 11:38:29;;;;;;;15.70;3.92;;;13.50;99.90;;;;;;5132781;27;20394;-58
2023/11/23 11:40:59;;;;;;;22.92;4.03;;;13.60;99.90;;;;;;5132670;27;20146;-57
2023/11/23 11:43:26;;;;;;;22.42;3.47;;;13.60;99.90;;;;;;5114722;28;20047;-57
2023/11/23 11:45:53;;;;;;;14.88;2.72;;;13.60;99.90;;;;;;5132726;27;20069;-59
2023/11/23 11:48:19;;;;;;;17.77;3.03;;;13.60;99.90;;;;;;5123701;27;20100;-57
2023/11/23 11:50:54;;;;;;;20.65;3.25;;;13.60;99.90;;;;;;5128547;28;20434;-57
2023/11/23 11:53:20;;;;;;;22.05;3.78;;;13.70;99.90;;;;;;5132539;28;20096;-58
2023/11/23 11:55:49;;;;;;;16.15;3.22;;;13.70;99.90;;;;;;5132334;28;20047;-57
2023/11/23 11:58:15;;;;;;;19.08;4.03;;;13.60;99.90;;;;;;5132460;28;20069;-57
2023/11/23 12:00:44;;;;;;;15.68;3.80;;;13.60;99.90;;;;;;5132985;27;20047;-57
2023/11/23 12:03:09;;;;;;;;;;;13.60;99.90;;;;;;5136945;27;20042;-57
2023/11/23 12:05:39;;;;;;;24.15;3.35;;;13.60;99.90;;;;;;5136806;27;19915;-57
2023/11/23 12:08:05;;;;;;;19.77;3.20;;;13.60;99.90;;;;;;5136540;27;20035;-56
2023/11/23 12:10:38;;;;;;;15.57;3.38;;;13.70;99.90;;;;;;5136927;27;20043;-57
2023/11/23 12:13:04;;;;;;;20.58;4.65;;;13.70;99.90;;;;;;5136322;27;20489;-57
2023/11/23 12:15:30;;;;;;;19.48;3.55;;;13.70;99.90;;;;;;5136504;27;20184;-56
2023/11/23 12:17:57;;;;;;;17.10;3.30;;;13.60;99.90;;;;;;5136459;27;20061;-58
2023/11/23 12:20:23;;;;;;;14.68;2.97;;;13.60;99.90;;;;;;5136445;27;20043;-58
2023/11/23 12:22:49;;;;;;;13.13;3.10;;;13.60;99.90;;;;;;5130676;27;20053;-57
2023/11/23 12:25:18;;;;;;;18.40;3.63;;;13.70;99.90;;;;;;5136320;27;20519;-57
2023/11/23 12:27:44;;;;;;;;;;;13.60;99.90;;;;;;5136872;27;20053;-58
2023/11/23 12:30:15;;;;;;;15.68;3.75;;;13.60;99.90;;;;;;5136136;27;19915;-58
2023/11/23 12:32:41;;;;;;;14.85;3.40;;;13.60;99.90;;;;;;5136116;27;20046;-57
2023/11/23 12:35:09;;;;;;;17.85;3.53;;;13.60;99.90;;;;;;5135870;27;20370;-57